createdAt,value
2018-05-21T00:01:44.470Z,12.70
2018-05-21T00:04:11.992Z,12.60
2018-05-21T00:06:39.523Z,12.60
2018-05-21T00:09:07.809Z,12.60
2018-05-21T00:11:36.113Z,12.60
2018-05-21T00:14:03.619Z,12.60
2018-05-21T00:16:31.164Z,12.60
2018-05-21T00:18:58.686Z,12.60
2018-05-21T00:21:26.199Z,12.60
2018-05-21T00:23:53.736Z,12.50
2018-05-21T00:26:21.252Z,12.50
2018-05-21T00:28:48.785Z,12.50
2018-05-21T00:31:16.300Z,12.50
2018-05-21T00:33:43.839Z,12.50
2018-05-21T00:36:11.357Z,12.50
2018-05-21T00:38:38.888Z,12.40
2018-05-21T00:41:06.412Z,12.30
2018-05-21T00:43:33.958Z,12.30
2018-05-21T00:46:01.489Z,12.20
2018-05-21T00:48:29.025Z,12.20
2018-05-21T00:50:56.543Z,12.10
2018-05-21T00:53:24.840Z,12.00
2018-05-21T00:55:52.352Z,12.00
2018-05-21T00:58:19.878Z,12.00
2018-05-21T01:00:47.390Z,12.00
2018-05-21T01:03:15.687Z,12.00
2018-05-21T01:05:43.204Z,12.00
2018-05-21T01:08:10.744Z,12.00
2018-05-21T01:10:38.259Z,12.00
2018-05-21T01:13:06.565Z,12.10
2018-05-21T01:15:34.172Z,12.10
2018-05-21T01:18:02.401Z,12.20
2018-05-21T01:20:29.935Z,12.20
2018-05-21T01:22:58.215Z,12.20
2018-05-21T01:25:25.753Z,12.20
2018-05-21T01:27:53.268Z,12.20
2018-05-21T01:30:20.806Z,12.10
2018-05-21T01:32:48.333Z,12.10
2018-05-21T01:35:15.878Z,12.00
2018-05-21T01:37:43.386Z,12.00
2018-05-21T01:40:10.922Z,12.00
2018-05-21T01:42:39.204Z,12.00
2018-05-21T01:45:07.506Z,12.00
2018-05-21T01:47:35.021Z,12.00
2018-05-21T01:50:02.557Z,11.90
2018-05-21T01:52:30.836Z,11.90
2018-05-21T01:54:58.372Z,11.90
2018-05-21T01:57:25.883Z,11.80
2018-05-21T01:59:53.416Z,11.80
2018-05-21T02:02:20.929Z,11.80
2018-05-21T02:04:48.472Z,11.80
2018-05-21T02:09:50.610Z,11.80
2018-05-21T02:12:18.888Z,11.90
2018-05-21T02:14:46.400Z,11.90
2018-05-21T02:17:14.701Z,11.80
2018-05-21T02:19:42.216Z,11.80
2018-05-21T02:22:09.747Z,11.90
2018-05-21T02:24:37.269Z,11.80
2018-05-21T02:27:04.820Z,11.80
2018-05-21T02:29:32.398Z,11.90
2018-05-21T02:32:00.684Z,11.80
2018-05-21T02:34:28.205Z,11.80
2018-05-21T02:36:56.510Z,12.00
2018-05-21T02:39:24.023Z,12.00
2018-05-21T02:41:52.320Z,11.90
2018-05-21T02:44:20.612Z,12.00
2018-05-21T02:46:49.987Z,12.00
2018-05-21T02:49:17.666Z,12.00
2018-05-21T02:51:45.967Z,11.90
2018-05-21T02:54:13.484Z,11.90
2018-05-21T02:56:41.103Z,11.80
2018-05-21T02:59:08.635Z,11.70
2018-05-21T03:01:36.179Z,11.70
2018-05-21T03:04:04.484Z,11.60
2018-05-21T03:06:32.060Z,11.50
2018-05-21T03:08:59.597Z,11.50
2018-05-21T03:11:27.118Z,11.50
2018-05-21T03:13:54.739Z,11.40
2018-05-21T03:16:22.304Z,11.30
2018-05-21T03:18:49.835Z,11.20
2018-05-21T03:21:18.140Z,11.00
2018-05-21T03:23:45.673Z,10.90
2018-05-21T03:26:13.974Z,10.90
2018-05-21T03:28:41.509Z,10.80
2018-05-21T03:31:09.800Z,11.00
2018-05-21T03:33:37.341Z,10.90
2018-05-21T03:36:05.624Z,11.10
2018-05-21T03:38:33.933Z,11.10
2018-05-21T03:41:01.449Z,11.10
2018-05-21T03:43:29.768Z,11.20
2018-05-21T03:45:57.283Z,11.20
2018-05-21T03:50:58.690Z,11.30
2018-05-21T03:53:26.233Z,11.30
2018-05-21T03:55:53.819Z,11.30
2018-05-21T04:01:30.869Z,11.60
2018-05-21T04:03:58.406Z,11.80
2018-05-21T04:06:25.915Z,12.00
2018-05-21T04:08:53.451Z,12.20
2018-05-21T04:11:20.967Z,12.40
2018-05-21T04:13:48.502Z,12.60
2018-05-21T04:16:16.021Z,12.90
2018-05-21T04:18:43.583Z,13.10
2018-05-21T04:21:11.095Z,13.30
2018-05-21T04:23:38.613Z,13.60
2018-05-21T04:26:06.920Z,14.10
2018-05-21T04:28:34.440Z,14.10
2018-05-21T04:31:01.981Z,14.40
2018-05-21T04:33:29.496Z,14.60
2018-05-21T04:35:57.040Z,14.90
2018-05-21T04:38:25.323Z,15.40
2018-05-21T04:40:53.625Z,15.80
2018-05-21T04:43:21.139Z,15.80
2018-05-21T04:45:48.677Z,16.10
2018-05-21T04:48:16.200Z,16.50
2018-05-21T04:50:43.735Z,17.00
2018-05-21T04:53:12.037Z,17.90
2018-05-21T04:55:39.575Z,17.90
2018-05-21T04:58:07.862Z,19.10
2018-05-21T05:00:36.166Z,19.80
2018-05-21T05:03:03.684Z,19.70
2018-05-21T05:05:31.989Z,21.10
2018-05-21T05:07:59.516Z,21.10
2018-05-21T05:10:27.052Z,21.40
2018-05-21T05:12:54.572Z,22.00
2018-05-21T05:15:22.108Z,22.50
2018-05-21T05:17:50.388Z,23.90
2018-05-21T05:20:18.696Z,24.40
2018-05-21T05:22:46.218Z,24.40
2018-05-21T05:25:15.232Z,25.00
2018-05-21T05:27:47.665Z,25.40
2018-05-21T05:30:15.213Z,25.60
2018-05-21T05:32:42.728Z,25.50
2018-05-21T05:35:10.248Z,25.40
2018-05-21T05:37:37.780Z,25.20
2018-05-21T05:40:05.297Z,25.00
2018-05-21T05:42:32.846Z,24.60
2018-05-21T05:45:01.125Z,24.10
2018-05-21T05:47:29.423Z,24.70
2018-05-21T05:49:56.945Z,24.70
2018-05-21T05:52:24.480Z,25.10
2018-05-21T05:54:51.998Z,24.90
2018-05-21T05:57:19.541Z,24.20
2018-05-21T05:59:47.828Z,24.50
2018-05-21T06:02:16.133Z,24.30
2018-05-21T06:04:43.652Z,24.30
2018-05-21T06:07:11.188Z,24.50
2018-05-21T06:09:38.708Z,24.40
2018-05-21T06:12:06.256Z,24.60
2018-05-21T06:14:34.543Z,25.30
2018-05-21T06:17:02.077Z,25.30
2018-05-21T06:19:30.367Z,24.80
2018-05-21T06:21:58.677Z,24.60
2018-05-21T06:24:26.273Z,24.60
2018-05-21T06:26:53.783Z,24.70
2018-05-21T06:29:21.320Z,25.10
2018-05-21T06:31:49.604Z,26.00
2018-05-21T06:34:17.927Z,26.10
2018-05-21T06:36:45.445Z,26.00
2018-05-21T06:39:13.753Z,25.70
2018-05-21T06:41:41.273Z,25.70
2018-05-21T06:44:09.576Z,25.80
2018-05-21T06:46:37.103Z,25.80
2018-05-21T06:49:05.399Z,25.20
2018-05-21T06:51:33.681Z,24.80
2018-05-21T06:54:01.242Z,24.80
2018-05-21T06:56:28.765Z,24.80
2018-05-21T06:58:56.303Z,24.90
2018-05-21T07:01:23.824Z,24.80
2018-05-21T07:03:51.370Z,24.90
2018-05-21T07:06:19.656Z,25.10
2018-05-21T07:08:47.936Z,24.80
2018-05-21T07:11:15.473Z,24.80
2018-05-21T07:13:42.987Z,25.10
2018-05-21T07:16:10.528Z,24.90
2018-05-21T07:18:38.040Z,25.00
2018-05-21T07:21:05.567Z,24.90
2018-05-21T07:23:33.084Z,24.90
2018-05-21T07:26:01.391Z,24.80
2018-05-21T07:28:28.912Z,24.70
2018-05-21T07:30:57.213Z,24.50
2018-05-21T07:33:24.724Z,24.50
2018-05-21T07:35:52.267Z,24.40
2018-05-21T07:38:19.792Z,24.40
2018-05-21T07:40:47.331Z,24.50
2018-05-21T07:43:15.626Z,24.40
2018-05-21T07:45:43.927Z,24.70
2018-05-21T07:48:11.446Z,24.60
2018-05-21T07:50:39.748Z,24.90
2018-05-21T07:53:07.273Z,24.80
2018-05-21T07:55:34.813Z,24.90
2018-05-21T07:58:02.331Z,24.30
2018-05-21T08:00:29.881Z,24.50
2018-05-21T08:02:58.160Z,24.10
2018-05-21T08:05:26.461Z,23.70
2018-05-21T08:07:54.022Z,23.70
2018-05-21T08:10:21.585Z,24.10
2018-05-21T08:12:49.124Z,24.50
2018-05-21T08:15:16.639Z,24.80
2018-05-21T08:17:44.185Z,24.70
2018-05-21T08:20:11.718Z,24.90
2018-05-21T08:22:39.252Z,25.40
2018-05-21T08:25:07.536Z,25.30
2018-05-21T08:27:35.839Z,24.70
2018-05-21T08:30:03.365Z,24.70
2018-05-21T08:32:31.675Z,24.40
2018-05-21T08:34:59.193Z,24.40
2018-05-21T08:37:26.733Z,24.20
2018-05-21T08:39:54.252Z,24.10
2018-05-21T08:42:21.784Z,24.10
2018-05-21T08:44:50.068Z,24.90
2018-05-21T08:47:18.373Z,25.30
2018-05-21T08:49:45.901Z,25.30
2018-05-21T08:52:14.221Z,25.80
2018-05-21T08:54:41.741Z,25.70
2018-05-21T08:57:10.026Z,25.10
2018-05-21T08:59:37.565Z,25.00
2018-05-21T09:02:05.846Z,24.60
2018-05-21T09:04:34.152Z,25.10
2018-05-21T09:07:01.663Z,25.10
2018-05-21T09:09:29.204Z,25.20
2018-05-21T09:11:56.720Z,25.30
2018-05-21T09:14:24.254Z,25.30
2018-05-21T09:16:51.776Z,25.20
2018-05-21T09:19:19.321Z,24.80
2018-05-21T09:21:46.843Z,24.50
2018-05-21T09:24:15.147Z,24.70
2018-05-21T09:26:42.664Z,24.70
2018-05-21T09:29:10.198Z,24.80
2018-05-21T09:31:37.718Z,25.10
2018-05-21T09:34:05.253Z,25.30
2018-05-21T09:36:32.773Z,25.20
2018-05-21T09:39:00.319Z,25.30
2018-05-21T09:41:27.835Z,25.20
2018-05-21T09:43:56.116Z,25.30
2018-05-21T09:46:24.418Z,25.70
2018-05-21T09:48:51.941Z,25.70
2018-05-21T09:51:19.479Z,26.20
2018-05-21T09:53:46.991Z,26.30
2018-05-21T09:56:14.572Z,26.20
2018-05-21T09:58:42.134Z,25.90
2018-05-21T10:01:09.669Z,26.00
2018-05-21T10:03:37.952Z,25.90
2018-05-21T10:06:05.486Z,25.80
2018-05-21T10:08:33.015Z,26.40
2018-05-21T10:11:00.545Z,26.30
2018-05-21T10:13:28.059Z,25.90
2018-05-21T10:15:55.675Z,25.80
2018-05-21T10:18:23.196Z,25.40
2018-05-21T10:20:51.499Z,25.20
2018-05-21T10:23:19.071Z,25.20
2018-05-21T10:25:46.608Z,25.90
2018-05-21T10:28:14.888Z,26.40
2018-05-21T10:30:42.421Z,26.40
2018-05-21T10:33:09.936Z,25.80
2018-05-21T10:35:37.480Z,25.90
2018-05-21T10:38:04.991Z,26.20
2018-05-21T10:40:32.516Z,26.50
2018-05-21T10:43:00.052Z,26.50
2018-05-21T10:45:27.565Z,26.80
2018-05-21T10:47:55.099Z,27.00
2018-05-21T10:50:22.616Z,26.70
2018-05-21T10:52:50.924Z,26.40
2018-05-21T10:55:18.439Z,26.40
2018-05-21T10:57:46.757Z,26.90
2018-05-21T11:00:14.276Z,26.80
2018-05-21T11:02:42.591Z,26.80
2018-05-21T11:05:10.107Z,26.70
2018-05-21T11:07:37.791Z,26.90
2018-05-21T11:10:05.260Z,26.60
2018-05-21T11:12:32.802Z,26.80
2018-05-21T11:15:01.118Z,26.70
2018-05-21T11:17:28.665Z,26.70
2018-05-21T11:19:56.259Z,26.10
2018-05-21T11:22:23.795Z,26.10
2018-05-21T11:24:51.316Z,26.50
2018-05-21T11:27:18.928Z,26.90
2018-05-21T11:29:46.445Z,27.20
2018-05-21T11:32:14.765Z,27.70
2018-05-21T11:34:42.284Z,27.70
2018-05-21T11:37:09.884Z,27.90
2018-05-21T11:39:37.448Z,27.60
2018-05-21T11:42:04.989Z,27.20
2018-05-21T11:44:32.510Z,27.30
2018-05-21T11:47:00.849Z,27.30
2018-05-21T11:49:28.391Z,27.30
2018-05-21T11:51:55.907Z,27.40
2018-05-21T11:54:23.529Z,27.60
2018-05-21T11:56:51.043Z,27.50
2018-05-21T11:59:18.580Z,27.40
2018-05-21T12:01:46.092Z,27.60
2018-05-21T12:04:13.677Z,27.70
2018-05-21T12:06:41.227Z,27.60
2018-05-21T12:09:08.761Z,27.60
2018-05-21T12:11:37.055Z,27.70
2018-05-21T12:14:04.592Z,27.70
2018-05-21T12:16:32.871Z,28.30
2018-05-21T12:19:01.176Z,28.40
2018-05-21T12:21:28.691Z,28.40
2018-05-21T12:23:56.992Z,28.70
2018-05-21T12:26:25.296Z,27.90
2018-05-21T12:31:27.477Z,25.70
2018-05-21T12:33:55.033Z,25.70
2018-05-21T12:36:22.555Z,25.90
2018-05-21T12:38:50.086Z,25.90
2018-05-21T12:41:17.629Z,26.20
2018-05-21T12:43:45.139Z,26.80
2018-05-21T12:46:12.679Z,27.10
2018-05-21T12:48:40.203Z,27.00
2018-05-21T12:51:07.740Z,27.10
2018-05-21T12:53:36.029Z,27.30
2018-05-21T12:56:03.572Z,27.20
2018-05-21T12:58:31.869Z,27.40
2018-05-21T13:00:59.409Z,27.40
2018-05-21T13:03:27.698Z,27.40
2018-05-21T13:05:56.001Z,27.60
2018-05-21T13:08:23.519Z,27.60
2018-05-21T13:10:51.823Z,27.80
2018-05-21T13:13:19.403Z,27.70
2018-05-21T13:15:46.939Z,27.90
2018-05-21T13:18:15.240Z,27.90
2018-05-21T13:20:42.788Z,27.90
2018-05-21T13:23:10.313Z,28.00
2018-05-21T13:25:37.848Z,27.70
2018-05-21T13:28:05.368Z,27.20
2018-05-21T13:30:32.909Z,26.50
2018-05-21T13:33:01.196Z,25.70
2018-05-21T13:35:28.731Z,25.60
2018-05-21T13:37:56.345Z,25.90
2018-05-21T13:40:23.881Z,26.40
2018-05-21T13:42:51.409Z,26.90
2018-05-21T13:45:20.462Z,27.00
2018-05-21T13:47:47.980Z,27.00
2018-05-21T13:50:16.296Z,27.30
2018-05-21T13:52:43.858Z,27.30
2018-05-21T13:55:11.385Z,27.50
2018-05-21T13:57:39.685Z,28.00
2018-05-21T14:00:07.208Z,28.00
2018-05-21T14:02:34.740Z,27.40
2018-05-21T14:05:02.256Z,26.90
2018-05-21T14:07:29.795Z,26.70
2018-05-21T14:09:58.081Z,27.10
2018-05-21T14:12:26.393Z,27.30
2018-05-21T14:14:54.212Z,27.20
2018-05-21T14:17:22.542Z,27.30
2018-05-21T14:19:50.080Z,27.30
2018-05-21T14:22:17.621Z,27.20
2018-05-21T14:24:45.900Z,27.30
2018-05-21T14:27:14.200Z,27.40
2018-05-21T14:29:41.717Z,27.40
2018-05-21T14:32:10.028Z,27.00
2018-05-21T14:34:38.312Z,26.60
2018-05-21T14:37:05.860Z,26.60
2018-05-21T14:39:34.145Z,26.50
2018-05-21T14:42:02.445Z,26.80
2018-05-21T14:44:30.007Z,26.80
2018-05-21T14:46:57.524Z,27.10
2018-05-21T14:49:25.847Z,27.80
2018-05-21T14:51:53.364Z,27.80
2018-05-21T14:54:21.664Z,27.60
2018-05-21T14:56:49.183Z,27.60
2018-05-21T14:59:16.905Z,26.80
2018-05-21T15:01:44.472Z,26.20
2018-05-21T15:04:12.008Z,25.70
2018-05-21T15:06:39.520Z,25.60
2018-05-21T15:09:07.073Z,25.70
2018-05-21T15:11:34.597Z,26.00
2018-05-21T15:14:02.129Z,26.20
2018-05-21T15:16:30.411Z,26.60
2018-05-21T15:18:58.715Z,26.70
2018-05-21T15:21:26.234Z,26.70
2018-05-21T15:23:53.772Z,26.60
2018-05-21T15:26:21.293Z,26.50
2018-05-21T15:28:48.845Z,26.50
2018-05-21T15:31:16.366Z,26.50
2018-05-21T15:33:45.397Z,26.60
2018-05-21T15:36:12.970Z,26.60
2018-05-21T15:38:41.232Z,26.10
2018-05-21T15:41:09.528Z,26.10
2018-05-21T15:43:37.093Z,26.10
2018-05-21T15:46:04.610Z,26.00
2018-05-21T15:48:32.997Z,25.70
2018-05-21T15:51:00.456Z,25.70
2018-05-21T15:53:28.737Z,25.20
2018-05-21T15:55:57.055Z,25.10
2018-05-21T15:58:24.616Z,25.10
2018-05-21T16:00:52.170Z,24.90
2018-05-21T16:03:19.689Z,24.60
2018-05-21T16:05:47.994Z,24.30
2018-05-21T16:08:15.511Z,24.30
2018-05-21T16:10:43.048Z,24.40
2018-05-21T16:13:10.566Z,24.50
2018-05-21T16:15:38.109Z,24.70
2018-05-21T16:18:06.429Z,24.80
2018-05-21T16:20:33.967Z,24.80
2018-05-21T16:23:01.489Z,24.80
2018-05-21T16:25:29.102Z,24.80
2018-05-21T16:27:56.668Z,24.90
2018-05-21T16:30:24.232Z,24.90
2018-05-21T16:32:51.768Z,24.90
2018-05-21T16:35:20.067Z,24.80
2018-05-21T16:37:47.603Z,24.80
2018-05-21T16:40:15.884Z,24.60
2018-05-21T16:42:43.424Z,24.60
2018-05-21T16:45:11.709Z,24.40
2018-05-21T16:47:40.068Z,24.30
2018-05-21T16:50:07.549Z,24.30
2018-05-21T16:52:35.857Z,24.00
2018-05-21T16:55:03.376Z,24.00
2018-05-21T16:57:31.680Z,23.70
2018-05-21T16:59:59.191Z,23.70
2018-05-21T17:02:26.728Z,23.60
2018-05-21T17:04:54.241Z,23.50
2018-05-21T17:07:22.567Z,23.40
2018-05-21T17:09:50.244Z,23.40
2018-05-21T17:12:17.777Z,23.30
2018-05-21T17:14:45.288Z,23.30
2018-05-21T17:17:12.827Z,23.30
2018-05-21T17:19:40.351Z,23.40
2018-05-21T17:22:07.868Z,23.40
2018-05-21T17:24:35.404Z,23.40
2018-05-21T17:27:02.933Z,23.50
2018-05-21T17:29:30.473Z,23.50
2018-05-21T17:31:58.752Z,23.40
2018-05-21T17:34:26.341Z,23.40
2018-05-21T17:36:53.855Z,23.40
2018-05-21T17:39:22.162Z,23.30
2018-05-21T17:41:49.736Z,23.30
2018-05-21T17:44:17.276Z,23.20
2018-05-21T17:46:44.792Z,23.10
2018-05-21T17:49:12.326Z,23.00
2018-05-21T17:51:39.885Z,22.90
2018-05-21T17:54:07.429Z,22.80
2018-05-21T17:56:34.946Z,22.80
2018-05-21T17:59:03.257Z,22.60
2018-05-21T18:01:30.777Z,22.50
2018-05-21T18:03:58.312Z,22.40
2018-05-21T18:06:25.828Z,22.30
2018-05-21T18:08:54.197Z,21.90
2018-05-21T18:11:21.660Z,21.90
2018-05-21T18:13:49.972Z,21.60
2018-05-21T18:16:17.492Z,21.60
2018-05-21T18:18:45.813Z,21.30
2018-05-21T18:21:13.325Z,21.30
2018-05-21T18:23:40.927Z,21.20
2018-05-21T18:26:08.465Z,21.10
2018-05-21T18:28:35.987Z,21.00
2018-05-21T18:31:03.525Z,20.80
2018-05-21T18:33:31.046Z,20.60
2018-05-21T18:35:58.638Z,20.50
2018-05-21T18:38:26.134Z,20.40
2018-05-21T18:40:53.676Z,20.20
2018-05-21T18:43:21.188Z,20.10
2018-05-21T18:45:48.768Z,20.00
2018-05-21T18:48:16.371Z,19.80
2018-05-21T18:50:43.853Z,19.60
2018-05-21T18:53:12.132Z,19.40
2018-05-21T18:55:40.436Z,19.20
2018-05-21T18:58:07.947Z,19.20
2018-05-21T19:00:35.480Z,19.10
2018-05-21T19:03:03.000Z,18.90
2018-05-21T19:05:31.317Z,18.60
2018-05-21T19:07:58.833Z,18.50
2018-05-21T19:10:27.120Z,18.20
2018-05-21T19:12:54.658Z,18.20
2018-05-21T19:15:22.939Z,18.00
2018-05-21T19:17:51.240Z,17.90
2018-05-21T19:20:18.757Z,17.90
2018-05-21T19:22:46.303Z,17.80
2018-05-21T19:25:13.820Z,17.70
2018-05-21T19:27:41.356Z,17.70
2018-05-21T19:30:09.653Z,17.60
2018-05-21T19:32:37.192Z,17.50
2018-05-21T19:35:05.564Z,17.50
2018-05-21T19:37:33.029Z,17.50
2018-05-21T19:40:01.312Z,17.50
2018-05-21T19:42:29.616Z,17.50
2018-05-21T19:44:57.135Z,17.50
2018-05-21T19:47:24.674Z,17.60
2018-05-21T19:49:52.192Z,17.60
2018-05-21T19:52:19.721Z,17.70
2018-05-21T19:54:48.024Z,17.70
2018-05-21T19:57:15.542Z,17.70
2018-05-21T19:59:43.081Z,17.70
2018-05-21T20:02:10.597Z,17.70
2018-05-21T20:04:38.904Z,17.60
2018-05-21T20:07:06.424Z,17.60
2018-05-21T20:09:34.728Z,17.50
2018-05-21T20:12:02.252Z,17.50
2018-05-21T20:14:29.792Z,17.40
2018-05-21T20:16:57.309Z,17.40
2018-05-21T20:19:24.891Z,17.40
2018-05-21T20:21:52.392Z,17.50
2018-05-21T20:24:19.928Z,17.50
2018-05-21T20:26:47.446Z,17.50
2018-05-21T20:29:14.980Z,17.50
2018-05-21T20:31:43.258Z,17.50
2018-05-21T20:34:11.557Z,17.50
2018-05-21T20:36:39.072Z,17.40
2018-05-21T20:39:06.605Z,17.40
2018-05-21T20:41:34.125Z,17.30
2018-05-21T20:44:01.672Z,17.20
2018-05-21T20:46:29.960Z,17.20
2018-05-21T20:48:58.239Z,17.20
2018-05-21T20:51:26.536Z,17.10
2018-05-21T20:53:54.060Z,17.10
2018-05-21T20:56:21.599Z,17.00
2018-05-21T20:58:49.118Z,17.00
2018-05-21T21:01:16.674Z,16.90
2018-05-21T21:03:44.199Z,16.80
2018-05-21T21:06:11.733Z,16.90
2018-05-21T21:08:39.243Z,16.90
2018-05-21T21:11:07.551Z,16.80
2018-05-21T21:13:35.069Z,16.80
2018-05-21T21:16:03.368Z,16.70
2018-05-21T21:18:30.888Z,16.70
2018-05-21T21:20:58.420Z,16.70
2018-05-21T21:23:25.985Z,16.70
2018-05-21T21:25:53.495Z,16.80
2018-05-21T21:28:21.777Z,16.70
2018-05-21T21:30:49.337Z,16.70
2018-05-21T21:33:17.620Z,16.60
2018-05-21T21:35:45.143Z,16.50
2018-05-21T21:38:12.685Z,16.50
2018-05-21T21:40:40.205Z,16.40
2018-05-21T21:43:07.741Z,16.40
2018-05-21T21:45:36.017Z,16.20
2018-05-21T21:48:04.316Z,16.20
2018-05-21T21:50:31.835Z,16.20
2018-05-21T21:52:59.372Z,16.10
2018-05-21T21:55:26.888Z,16.10
2018-05-21T21:57:55.188Z,15.90
2018-05-21T22:00:22.712Z,15.90
2018-05-21T22:02:51.009Z,15.90
2018-05-21T22:05:18.524Z,15.80
2018-05-21T22:07:46.058Z,15.80
2018-05-21T22:10:13.577Z,15.80
2018-05-21T22:12:41.875Z,16.00
2018-05-21T22:15:09.394Z,16.00
2018-05-21T22:17:36.932Z,16.00
2018-05-21T22:20:04.448Z,16.10
2018-05-21T22:22:31.983Z,16.10
2018-05-21T22:25:00.269Z,16.20
2018-05-21T22:27:28.584Z,16.20
2018-05-21T22:29:56.101Z,16.20
2018-05-21T22:32:24.383Z,16.10
2018-05-21T22:34:52.689Z,16.10
2018-05-21T22:37:20.209Z,16.10
2018-05-21T22:39:47.745Z,16.00
2018-05-21T22:42:15.266Z,16.00
2018-05-21T22:44:42.812Z,16.00
2018-05-21T22:47:10.332Z,15.90
2018-05-21T22:49:37.871Z,15.80
2018-05-21T22:52:05.383Z,15.80
2018-05-21T22:54:36.197Z,15.60
2018-05-21T22:57:03.715Z,15.60
2018-05-21T22:59:31.257Z,15.50
2018-05-21T23:01:58.770Z,15.50
2018-05-21T23:04:26.308Z,15.40
2018-05-21T23:06:54.584Z,15.20
2018-05-21T23:09:22.116Z,15.20
2018-05-21T23:11:49.633Z,15.10
2018-05-21T23:14:17.168Z,15.10
2018-05-21T23:16:44.681Z,15.10
2018-05-21T23:19:12.989Z,15.00
2018-05-21T23:21:40.512Z,14.90
2018-05-21T23:24:08.818Z,14.80
2018-05-21T23:26:36.332Z,14.70
2018-05-21T23:29:03.855Z,14.70
2018-05-21T23:31:31.392Z,14.60
2018-05-21T23:33:58.912Z,14.50
2018-05-21T23:36:26.447Z,14.50
2018-05-21T23:38:53.956Z,14.40
2018-05-21T23:41:22.255Z,14.40
2018-05-21T23:43:49.777Z,14.30
2018-05-21T23:46:17.312Z,14.40
2018-05-21T23:48:44.828Z,14.30
2018-05-21T23:51:12.365Z,14.20
2018-05-21T23:53:40.649Z,14.00
2018-05-21T23:56:08.956Z,13.90
2018-05-21T23:58:36.469Z,13.90
